createdAt,value
2022-12-09T00:00:18.437Z,17.37
2022-12-09T00:02:46.267Z,16.83
2022-12-09T00:05:14.154Z,18.07
2022-12-09T00:07:43.393Z,18.00
2022-12-09T00:10:11.531Z,16.73
2022-12-09T00:12:39.446Z,16.93
2022-12-09T00:15:08.850Z,17.27
2022-12-09T00:17:36.806Z,17.20
2022-12-09T00:20:06.014Z,16.57
2022-12-09T00:22:34.048Z,15.97
2022-12-09T00:25:03.255Z,17.07
2022-12-09T00:27:31.139Z,17.50
2022-12-09T00:29:59.860Z,17.03
2022-12-09T00:32:27.722Z,15.17
2022-12-09T00:34:55.512Z,16.40
2022-12-09T00:37:23.158Z,16.23
2022-12-09T00:39:50.830Z,16.47
2022-12-09T00:42:19.876Z,15.17
2022-12-09T00:44:47.776Z,15.60
2022-12-09T00:47:15.550Z,16.07
2022-12-09T00:49:43.349Z,17.27
2022-12-09T00:52:10.976Z,16.10
2022-12-09T00:54:39.040Z,16.40
2022-12-09T00:57:07.003Z,16.13
2022-12-09T00:59:36.179Z,16.13
2022-12-09T01:02:03.934Z,16.03
2022-12-09T01:04:33.832Z,14.60
2022-12-09T01:07:01.606Z,15.37
2022-12-09T01:09:29.836Z,15.87
2022-12-09T01:11:57.718Z,16.13
2022-12-09T01:14:25.795Z,15.50
2022-12-09T01:16:54.925Z,15.90
2022-12-09T01:19:23.035Z,15.37
2022-12-09T01:21:54.909Z,15.80
2022-12-09T01:24:22.871Z,16.50
2022-12-09T01:26:50.734Z,15.43
2022-12-09T01:29:18.451Z,16.20
2022-12-09T01:31:46.137Z,17.10
2022-12-09T01:34:15.221Z,17.00
2022-12-09T01:36:42.882Z,16.23
2022-12-09T01:39:10.964Z,15.73
2022-12-09T01:41:38.757Z,16.73
2022-12-09T01:46:41.318Z,15.93
2022-12-09T01:49:10.361Z,17.17
2022-12-09T01:51:39.675Z,16.57
2022-12-09T01:54:07.461Z,16.37
2022-12-09T01:56:36.007Z,16.77
2022-12-09T01:59:05.244Z,17.10
2022-12-09T02:01:33.078Z,16.53
2022-12-09T02:04:01.155Z,17.10
2022-12-09T02:06:29.383Z,16.00
2022-12-09T02:08:58.593Z,17.00
2022-12-09T02:11:30.647Z,17.27
2022-12-09T02:14:02.453Z,16.20
2022-12-09T02:16:30.644Z,16.63
2022-12-09T02:19:01.164Z,17.43
2022-12-09T02:21:31.158Z,16.57
2022-12-09T02:24:05.454Z,16.30
2022-12-09T02:26:36.968Z,17.63
2022-12-09T02:29:19.764Z,17.57
2022-12-09T02:32:08.250Z,18.40
2022-12-09T02:34:38.793Z,17.20
2022-12-09T02:37:09.738Z,18.27
2022-12-09T02:39:42.804Z,17.57
2022-12-09T02:42:10.877Z,17.00
2022-12-09T02:44:39.013Z,15.77
2022-12-09T02:47:07.284Z,15.93
2022-12-09T02:49:35.108Z,17.30
2022-12-09T02:52:04.252Z,16.70
2022-12-09T02:54:32.358Z,17.53
2022-12-09T02:57:02.837Z,16.17
2022-12-09T02:59:30.879Z,16.90
2022-12-09T03:02:14.421Z,16.60
2022-12-09T03:04:43.811Z,16.73
2022-12-09T03:07:16.975Z,17.33
2022-12-09T03:09:46.075Z,16.97
2022-12-09T03:12:15.392Z,17.60
2022-12-09T03:14:44.690Z,17.23
2022-12-09T03:17:14.480Z,17.60
2022-12-09T03:19:43.657Z,17.57
2022-12-09T03:22:14.800Z,16.97
2022-12-09T03:24:45.672Z,16.83
2022-12-09T03:27:15.750Z,17.60
2022-12-09T03:29:43.941Z,17.90
2022-12-09T03:32:12.022Z,16.30
2022-12-09T03:34:40.319Z,17.20
2022-12-09T03:37:08.260Z,17.00
2022-12-09T03:39:38.739Z,17.07
2022-12-09T03:42:08.653Z,17.60
2022-12-09T03:44:38.180Z,17.63
2022-12-09T03:47:06.868Z,18.67
2022-12-09T03:49:35.830Z,17.70
2022-12-09T03:52:05.323Z,16.83
2022-12-09T03:54:34.746Z,17.70
2022-12-09T03:57:04.150Z,17.87
2022-12-09T03:59:34.782Z,18.33
2022-12-09T04:02:03.670Z,16.43
2022-12-09T04:04:32.123Z,17.77
2022-12-09T04:07:00.068Z,18.20
2022-12-09T04:09:28.488Z,18.57
2022-12-09T04:11:56.325Z,18.07
2022-12-09T04:14:25.479Z,17.83
2022-12-09T04:16:53.331Z,19.37
2022-12-09T04:19:21.133Z,19.83
2022-12-09T04:21:48.877Z,19.40
2022-12-09T04:24:17.320Z,18.50
2022-12-09T04:26:45.200Z,20.30
2022-12-09T04:29:15.348Z,17.13
2022-12-09T04:31:44.745Z,19.00
2022-12-09T04:34:13.951Z,18.57
2022-12-09T04:36:41.737Z,18.30
2022-12-09T04:39:10.039Z,17.37
2022-12-09T04:41:38.181Z,19.00
2022-12-09T04:44:06.517Z,17.13
2022-12-09T04:46:34.416Z,17.30
2022-12-09T04:49:04.160Z,18.57
2022-12-09T04:51:39.223Z,17.93
2022-12-09T04:54:07.700Z,17.77
2022-12-09T04:56:35.723Z,17.97
2022-12-09T04:59:04.804Z,17.93
2022-12-09T05:01:33.248Z,19.03
2022-12-09T05:04:01.351Z,18.03
2022-12-09T05:06:31.232Z,18.07
2022-12-09T05:08:59.452Z,17.20
2022-12-09T05:11:27.541Z,18.70
2022-12-09T05:13:55.487Z,19.73
2022-12-09T05:16:24.109Z,18.83
2022-12-09T05:18:52.411Z,19.00
2022-12-09T05:21:21.132Z,18.17
2022-12-09T05:23:50.455Z,17.87
2022-12-09T05:26:21.366Z,19.13
2022-12-09T05:28:49.372Z,19.23
2022-12-09T05:31:19.840Z,17.53
2022-12-09T05:33:48.212Z,16.47
2022-12-09T05:36:17.884Z,17.00
2022-12-09T05:38:45.787Z,16.27
2022-12-09T05:41:15.853Z,14.43
2022-12-09T05:43:44.037Z,17.07
2022-12-09T05:46:12.294Z,15.60
2022-12-09T05:48:40.609Z,15.90
2022-12-09T05:51:11.761Z,15.60
2022-12-09T05:53:39.803Z,16.53
2022-12-09T05:56:07.682Z,15.47
2022-12-09T05:58:36.979Z,15.63
2022-12-09T06:01:05.745Z,15.00
2022-12-09T06:03:35.507Z,13.40
2022-12-09T06:06:06.773Z,13.03
2022-12-09T06:08:35.537Z,15.17
2022-12-09T06:11:03.454Z,12.43
2022-12-09T06:13:32.097Z,12.60
2022-12-09T06:16:05.338Z,14.00
2022-12-09T06:18:33.877Z,13.50
2022-12-09T06:21:06.292Z,14.00
2022-12-09T06:23:35.431Z,13.07
2022-12-09T06:26:03.565Z,12.77
2022-12-09T06:28:31.438Z,12.47
2022-12-09T06:31:00.050Z,13.33
2022-12-09T06:33:53.602Z,16.00
2022-12-09T06:36:16.881Z,17.03
2022-12-09T06:38:47.262Z,15.70
2022-12-09T06:41:15.755Z,17.00
2022-12-09T06:43:44.021Z,16.17
2022-12-09T06:46:13.010Z,17.17
2022-12-09T06:48:42.804Z,16.30
2022-12-09T06:51:11.177Z,16.30
2022-12-09T06:53:39.185Z,15.97
2022-12-09T06:56:12.170Z,16.80
2022-12-09T06:58:41.438Z,17.50
2022-12-09T07:01:13.786Z,17.60
2022-12-09T07:03:43.904Z,16.57
2022-12-09T07:06:17.985Z,14.70
2022-12-09T07:08:45.899Z,15.87
2022-12-09T07:11:14.691Z,18.47
2022-12-09T07:13:42.989Z,17.00
2022-12-09T07:16:11.043Z,18.07
2022-12-09T07:18:39.111Z,18.37
2022-12-09T07:21:09.510Z,17.77
2022-12-09T07:23:38.301Z,17.63
2022-12-09T07:26:07.399Z,19.30
2022-12-09T07:28:36.449Z,17.97
2022-12-09T07:31:04.585Z,18.40
2022-12-09T07:33:32.729Z,18.80
2022-12-09T07:36:01.108Z,18.67
2022-12-09T07:38:30.411Z,19.20
2022-12-09T07:40:58.515Z,18.67
2022-12-09T07:46:08.488Z,18.40
2022-12-09T07:48:36.890Z,19.27
2022-12-09T07:51:05.444Z,29.53
2022-12-09T07:53:35.249Z,18.30
2022-12-09T07:56:04.626Z,17.83
2022-12-09T07:58:32.795Z,20.30
2022-12-09T08:01:06.314Z,16.33
2022-12-09T08:03:34.303Z,15.47
2022-12-09T08:06:02.564Z,16.63
2022-12-09T08:08:31.129Z,16.67
2022-12-09T08:11:08.624Z,16.03
2022-12-09T08:13:36.675Z,16.33
2022-12-09T08:16:05.283Z,16.40
2022-12-09T08:18:33.357Z,15.70
2022-12-09T08:21:01.558Z,15.27
2022-12-09T08:23:29.682Z,19.03
2022-12-09T08:25:58.028Z,16.00
2022-12-09T08:28:29.077Z,15.00
2022-12-09T08:30:57.411Z,14.70
2022-12-09T08:33:26.840Z,15.00
2022-12-09T08:35:54.840Z,13.70
2022-12-09T08:38:22.792Z,14.53
2022-12-09T08:40:50.616Z,14.93
2022-12-09T08:43:18.508Z,16.83
2022-12-09T08:45:48.932Z,16.23
2022-12-09T08:48:17.523Z,14.53
2022-12-09T08:50:46.206Z,15.13
2022-12-09T08:53:14.636Z,12.90
2022-12-09T08:55:42.988Z,13.83
2022-12-09T08:58:11.128Z,13.50
2022-12-09T09:00:39.138Z,13.80
2022-12-09T09:03:12.262Z,13.90
2022-12-09T09:05:40.551Z,14.50
2022-12-09T09:08:09.000Z,12.80
2022-12-09T09:10:43.398Z,13.37
2022-12-09T09:13:11.525Z,13.00
2022-12-09T09:15:40.476Z,13.20
2022-12-09T09:18:11.014Z,13.37
2022-12-09T09:20:38.998Z,12.80
2022-12-09T09:23:06.997Z,13.10
2022-12-09T09:25:35.289Z,13.93
2022-12-09T09:28:03.647Z,32.90
2022-12-09T09:30:32.196Z,14.60
2022-12-09T09:33:00.290Z,11.47
2022-12-09T09:35:30.444Z,12.77
2022-12-09T09:37:59.374Z,11.67
2022-12-09T09:40:27.574Z,11.53
2022-12-09T09:42:55.663Z,11.93
2022-12-09T09:45:24.893Z,13.07
2022-12-09T09:47:54.410Z,13.67
2022-12-09T09:50:30.925Z,14.43
2022-12-09T09:53:12.167Z,15.73
2022-12-09T09:55:43.873Z,13.93
2022-12-09T09:58:15.077Z,12.23
2022-12-09T10:00:47.628Z,13.53
2022-12-09T10:03:18.969Z,12.83
2022-12-09T10:05:51.868Z,12.30
2022-12-09T10:08:28.245Z,12.93
2022-12-09T10:11:05.159Z,13.77
2022-12-09T10:13:42.219Z,15.73
2022-12-09T10:16:17.882Z,15.80
2022-12-09T10:19:07.385Z,17.27
2022-12-09T10:21:39.499Z,15.43
2022-12-09T10:24:17.423Z,15.17
2022-12-09T10:26:45.317Z,17.07
2022-12-09T10:29:16.810Z,17.53
2022-12-09T10:31:45.209Z,19.40
2022-12-09T10:34:16.123Z,18.80
2022-12-09T10:36:45.305Z,19.27
2022-12-09T10:39:16.556Z,20.50
2022-12-09T10:42:03.939Z,20.07
2022-12-09T10:44:31.978Z,20.50
2022-12-09T10:47:01.413Z,17.70
2022-12-09T10:49:29.657Z,18.73
2022-12-09T10:51:58.115Z,19.40
2022-12-09T10:54:34.977Z,19.07
2022-12-09T10:57:26.865Z,21.13
2022-12-09T11:00:01.850Z,20.47
2022-12-09T11:02:30.370Z,21.57
2022-12-09T11:05:19.104Z,19.07
2022-12-09T11:07:49.198Z,18.87
2022-12-09T11:10:20.713Z,18.20
2022-12-09T11:12:52.111Z,19.40
2022-12-09T11:15:26.603Z,18.03
2022-12-09T11:18:00.411Z,17.57
2022-12-09T11:20:29.676Z,18.70
2022-12-09T11:23:04.268Z,18.47
2022-12-09T11:25:35.192Z,18.83
2022-12-09T11:28:04.042Z,19.20
2022-12-09T11:30:34.075Z,19.03
2022-12-09T11:33:06.063Z,18.37
2022-12-09T11:35:38.331Z,18.77
2022-12-09T11:38:23.225Z,19.00
2022-12-09T11:41:15.352Z,18.50
2022-12-09T11:43:44.655Z,18.97
2022-12-09T11:46:21.460Z,17.70
2022-12-09T11:48:51.554Z,18.20
2022-12-09T11:51:21.820Z,18.53
2022-12-09T11:53:49.751Z,17.43
2022-12-09T11:56:19.663Z,17.30
2022-12-09T11:58:50.743Z,17.50
2022-12-09T12:01:21.108Z,18.27
2022-12-09T12:03:51.100Z,18.83
2022-12-09T12:06:21.671Z,19.00
2022-12-09T12:08:51.097Z,17.03
2022-12-09T12:11:21.921Z,18.90
2022-12-09T12:13:50.420Z,18.27
2022-12-09T12:16:19.785Z,18.10
2022-12-09T12:18:48.859Z,17.47
2022-12-09T12:21:21.757Z,16.43
2022-12-09T12:23:59.887Z,16.33
2022-12-09T12:26:30.448Z,16.20
2022-12-09T12:29:09.160Z,17.47
2022-12-09T12:31:51.413Z,18.13
2022-12-09T12:34:25.663Z,17.67
2022-12-09T12:36:57.407Z,16.57
2022-12-09T12:39:32.361Z,17.13
2022-12-09T12:42:07.063Z,16.50
2022-12-09T12:45:01.795Z,15.10
2022-12-09T12:47:31.450Z,19.47
2022-12-09T12:50:47.984Z,16.73
2022-12-09T12:53:24.053Z,16.63
2022-12-09T12:55:55.092Z,16.07
2022-12-09T12:58:34.553Z,16.70
2022-12-09T13:01:04.496Z,17.27
2022-12-09T13:03:37.562Z,16.60
2022-12-09T13:06:05.349Z,16.83
2022-12-09T13:08:36.648Z,17.70
2022-12-09T13:11:07.877Z,15.97
2022-12-09T13:13:38.698Z,17.10
2022-12-09T13:16:10.158Z,16.20
2022-12-09T13:18:39.825Z,16.53
2022-12-09T13:21:07.926Z,16.07
2022-12-09T13:23:51.177Z,15.00
2022-12-09T13:26:25.154Z,15.20
2022-12-09T13:28:57.615Z,14.17
2022-12-09T13:31:28.924Z,12.03
2022-12-09T13:34:00.376Z,12.87
2022-12-09T13:36:36.472Z,13.53
2022-12-09T13:39:04.542Z,12.47
2022-12-09T13:42:02.793Z,14.43
2022-12-09T13:44:38.474Z,13.67
2022-12-09T13:47:34.819Z,13.43
2022-12-09T13:50:03.780Z,14.13
2022-12-09T13:52:56.492Z,13.20
2022-12-09T13:55:39.674Z,13.87
2022-12-09T13:58:35.077Z,13.40
2022-12-09T14:01:07.953Z,13.83
2022-12-09T14:03:37.055Z,13.17
2022-12-09T14:06:06.970Z,13.07
2022-12-09T14:08:36.881Z,13.07
2022-12-09T14:11:48.210Z,14.30
2022-12-09T14:14:38.229Z,13.90
2022-12-09T14:17:19.141Z,15.90
2022-12-09T14:19:52.924Z,14.10
2022-12-09T14:22:41.570Z,15.13
2022-12-09T14:25:49.722Z,15.63
2022-12-09T14:29:00.959Z,16.97
2022-12-09T14:31:59.604Z,15.77
2022-12-09T14:34:31.058Z,16.00
2022-12-09T14:37:07.076Z,15.10
2022-12-09T14:39:37.771Z,16.33
2022-12-09T14:42:08.682Z,17.00
2022-12-09T14:44:39.120Z,16.00
2022-12-09T14:47:23.168Z,16.53
2022-12-09T14:49:50.879Z,16.90
2022-12-09T14:52:22.994Z,17.87
2022-12-09T14:54:50.847Z,16.33
2022-12-09T14:57:24.383Z,16.40
2022-12-09T14:59:53.672Z,16.03
2022-12-09T15:02:23.834Z,17.83
2022-12-09T15:04:52.397Z,16.13
2022-12-09T15:07:21.620Z,16.20
2022-12-09T15:09:54.496Z,16.03
2022-12-09T15:12:24.111Z,15.13
2022-12-09T15:14:56.390Z,16.77
2022-12-09T15:17:26.927Z,17.93
2022-12-09T15:20:05.782Z,18.10
2022-12-09T15:22:33.706Z,16.73
2022-12-09T15:25:04.500Z,17.87
2022-12-09T15:27:32.662Z,18.10
2022-12-09T15:30:04.279Z,18.70
2022-12-09T15:32:33.636Z,17.80
2022-12-09T15:35:30.870Z,19.17
2022-12-09T15:37:59.478Z,20.63
2022-12-09T15:40:29.279Z,19.53
2022-12-09T15:42:59.465Z,19.47
2022-12-09T15:45:28.397Z,19.73
2022-12-09T15:47:59.127Z,20.80
2022-12-09T15:50:28.432Z,20.40
2022-12-09T15:52:58.438Z,19.93
2022-12-09T15:55:28.356Z,20.83
2022-12-09T15:57:56.782Z,20.80
2022-12-09T16:00:24.913Z,22.40
2022-12-09T16:02:53.992Z,22.93
2022-12-09T16:05:24.975Z,20.90
2022-12-09T16:07:54.631Z,24.70
2022-12-09T16:10:26.611Z,22.80
2022-12-09T16:13:08.611Z,21.57
2022-12-09T16:15:46.069Z,20.37
2022-12-09T16:18:20.617Z,22.57
2022-12-09T16:21:00.283Z,23.57
2022-12-09T16:23:30.552Z,21.70
2022-12-09T16:26:06.315Z,22.70
2022-12-09T16:28:35.246Z,23.50
2022-12-09T16:31:04.317Z,23.63
2022-12-09T16:33:34.370Z,22.43
2022-12-09T16:36:04.725Z,25.30
2022-12-09T16:38:33.956Z,24.27
2022-12-09T16:41:07.040Z,24.47
2022-12-09T16:43:35.047Z,22.83
2022-12-09T16:46:23.850Z,23.97
2022-12-09T16:48:51.783Z,23.53
2022-12-09T16:51:22.867Z,22.97
2022-12-09T16:53:51.681Z,25.93
2022-12-09T16:56:20.744Z,24.03
2022-12-09T16:58:48.589Z,24.27
2022-12-09T17:01:17.544Z,24.67
2022-12-09T17:03:46.836Z,23.53
2022-12-09T17:06:15.132Z,22.70
2022-12-09T17:08:44.661Z,23.70
2022-12-09T17:11:12.559Z,25.83
2022-12-09T17:13:40.790Z,23.57
2022-12-09T17:16:09.521Z,24.87
2022-12-09T17:18:37.492Z,24.73
2022-12-09T17:21:06.817Z,23.63
2022-12-09T17:23:39.711Z,24.27
2022-12-09T17:26:10.587Z,27.07
2022-12-09T17:28:38.835Z,27.70
2022-12-09T17:31:08.877Z,27.43
2022-12-09T17:33:36.766Z,27.33
2022-12-09T17:36:04.809Z,29.83
2022-12-09T17:38:33.078Z,27.83
2022-12-09T17:41:04.607Z,25.47
2022-12-09T17:43:34.082Z,29.73
2022-12-09T17:46:03.815Z,28.53
2022-12-09T17:48:31.964Z,28.30
2022-12-09T17:51:00.660Z,26.83
2022-12-09T17:53:31.651Z,29.07
2022-12-09T17:55:59.588Z,33.73
2022-12-09T17:58:27.647Z,31.13
2022-12-09T18:00:57.173Z,30.47
2022-12-09T18:03:53.902Z,31.30
2022-12-09T18:06:12.978Z,31.77
2022-12-09T18:08:40.836Z,29.07
2022-12-09T18:11:10.698Z,31.60
2022-12-09T18:13:38.717Z,30.80
2022-12-09T18:16:11.124Z,27.90
2022-12-09T18:18:39.072Z,31.47
2022-12-09T18:21:13.654Z,27.03
2022-12-09T18:23:43.388Z,27.57
2022-12-09T18:26:12.362Z,29.30
2022-12-09T18:28:40.412Z,27.53
2022-12-09T18:31:10.246Z,26.30
2022-12-09T18:33:39.480Z,29.37
2022-12-09T18:36:08.098Z,26.83
2022-12-09T18:38:36.016Z,26.07
2022-12-09T18:41:04.096Z,26.87
2022-12-09T18:43:33.836Z,23.63
2022-12-09T18:46:03.130Z,24.83
2022-12-09T18:48:32.753Z,26.03
2022-12-09T18:51:00.632Z,23.23
2022-12-09T18:53:28.422Z,25.13
2022-12-09T18:55:56.384Z,24.53
2022-12-09T18:58:49.527Z,25.63
2022-12-09T19:01:17.140Z,22.80
2022-12-09T19:03:46.518Z,26.23
2022-12-09T19:06:23.326Z,25.67
2022-12-09T19:08:53.826Z,25.10
2022-12-09T19:11:22.568Z,25.13
2022-12-09T19:13:50.564Z,24.27
2022-12-09T19:16:18.735Z,26.20
2022-12-09T19:18:48.205Z,25.57
2022-12-09T19:21:18.783Z,25.27
2022-12-09T19:23:47.004Z,26.10
2022-12-09T19:26:15.534Z,25.10
2022-12-09T19:28:47.137Z,24.57
2022-12-09T19:31:16.582Z,25.73
2022-12-09T19:33:44.546Z,27.30
2022-12-09T19:36:13.929Z,26.37
2022-12-09T19:38:42.484Z,29.53
2022-12-09T19:41:10.580Z,27.03
2022-12-09T19:43:38.695Z,26.90
2022-12-09T19:46:07.461Z,26.97
2022-12-09T19:48:37.126Z,27.23
2022-12-09T19:51:06.469Z,26.17
2022-12-09T19:53:36.321Z,26.53
2022-12-09T19:56:05.572Z,27.70
2022-12-09T19:58:33.954Z,25.83
2022-12-09T20:01:08.555Z,29.40
2022-12-09T20:03:36.554Z,29.90
2022-12-09T20:06:04.802Z,28.80
2022-12-09T20:08:32.902Z,27.20
2022-12-09T20:11:02.304Z,27.77
2022-12-09T20:13:31.994Z,27.67
2022-12-09T20:16:04.686Z,25.67
2022-12-09T20:18:32.672Z,27.10
2022-12-09T20:21:01.640Z,27.53
2022-12-09T20:23:29.646Z,27.07
2022-12-09T20:26:05.860Z,27.37
2022-12-09T20:28:33.857Z,28.20
2022-12-09T20:31:15.712Z,28.10
2022-12-09T20:33:43.702Z,26.57
2022-12-09T20:36:12.696Z,25.17
2022-12-09T20:38:40.598Z,26.20
2022-12-09T20:41:11.224Z,25.27
2022-12-09T20:43:40.314Z,24.50
2022-12-09T20:46:25.184Z,27.93
2022-12-09T20:48:53.274Z,27.60
2022-12-09T20:51:22.967Z,27.73
2022-12-09T20:53:50.957Z,27.87
2022-12-09T20:56:21.158Z,26.13
2022-12-09T20:58:50.983Z,26.53
2022-12-09T21:01:21.219Z,27.07
2022-12-09T21:03:49.256Z,26.17
2022-12-09T21:06:17.845Z,27.47
2022-12-09T21:08:45.699Z,27.83
2022-12-09T21:11:14.822Z,26.60
2022-12-09T21:13:55.109Z,28.57
2022-12-09T21:16:25.368Z,27.47
2022-12-09T21:18:54.402Z,27.50
2022-12-09T21:21:23.059Z,27.83
2022-12-09T21:23:54.128Z,27.53
2022-12-09T21:26:22.998Z,27.33
2022-12-09T21:28:52.486Z,28.80
2022-12-09T21:31:22.983Z,26.33
2022-12-09T21:33:51.438Z,27.93
2022-12-09T21:36:20.636Z,27.60
2022-12-09T21:38:48.632Z,27.27
2022-12-09T21:41:19.339Z,29.63
2022-12-09T21:43:47.174Z,26.17
2022-12-09T21:46:17.662Z,27.40
2022-12-09T21:48:51.560Z,27.57
2022-12-09T21:51:20.288Z,27.70
2022-12-09T21:53:48.219Z,28.60
2022-12-09T21:56:17.207Z,28.00
2022-12-09T21:58:45.126Z,30.27
2022-12-09T22:01:14.167Z,27.60
2022-12-09T22:03:44.534Z,28.47
2022-12-09T22:06:12.559Z,28.63
2022-12-09T22:08:40.862Z,28.07
2022-12-09T22:11:09.816Z,28.60
2022-12-09T22:13:39.723Z,29.40
2022-12-09T22:16:08.327Z,28.83
2022-12-09T22:18:36.199Z,29.43
2022-12-09T22:23:54.427Z,28.17
2022-12-09T22:26:22.522Z,27.73
2022-12-09T22:28:50.355Z,29.37
2022-12-09T22:31:20.645Z,28.87
2022-12-09T22:33:48.624Z,28.63
2022-12-09T22:36:17.844Z,28.83
2022-12-09T22:38:45.694Z,29.23
2022-12-09T22:41:15.393Z,27.53
2022-12-09T22:43:43.614Z,28.03
2022-12-09T22:46:20.735Z,28.47
2022-12-09T22:48:48.712Z,28.87
2022-12-09T22:51:18.968Z,27.63
2022-12-09T22:53:48.048Z,28.37
2022-12-09T22:56:15.780Z,28.10
2022-12-09T22:58:43.447Z,27.73
2022-12-09T23:01:11.985Z,28.83
2022-12-09T23:03:39.700Z,29.83
2022-12-09T23:06:07.746Z,29.60
2022-12-09T23:08:37.600Z,29.50
2022-12-09T23:11:06.844Z,27.83
2022-12-09T23:13:40.468Z,28.40
2022-12-09T23:18:42.710Z,29.07
2022-12-09T23:21:11.244Z,28.70
2022-12-09T23:23:40.300Z,28.60
2022-12-09T23:26:09.124Z,29.70
2022-12-09T23:28:37.221Z,30.57
2022-12-09T23:31:05.113Z,28.50
2022-12-09T23:33:34.024Z,29.33
2022-12-09T23:36:06.224Z,29.10
2022-12-09T23:38:35.088Z,28.77
2022-12-09T23:41:04.263Z,28.97
2022-12-09T23:43:32.222Z,30.27
2022-12-09T23:46:01.320Z,26.53
2022-12-09T23:48:29.064Z,31.23
2022-12-09T23:50:56.787Z,27.83
2022-12-09T23:53:24.639Z,28.40
2022-12-09T23:55:52.908Z,29.17
2022-12-09T23:58:22.086Z,29.83
